Time;durP1;ratioP1;P1;durP2;ratioP2;P2;SDS_P1;SDS_P2;PMS_P1;PMS_P2;Temp;Humidity;BMP_temperature;BMP_pressure;BME280_temperature;BME280_humidity;BME280_pressure;Samples;Min_cycle;Max_cycle;Signal;HPM_P1;HPM_P2
2022/08/17 00:04:26;;;;;;;2.15;1.50;;;18.70;53.80;20.80;93375.00;;;;10463160;28;45242;-64
2022/08/17 00:09:49;;;;;;;3.13;1.58;;;18.70;53.80;20.80;93357.00;;;;10428439;28;45755;-64
2022/08/17 00:15:10;;;;;;;1.73;1.40;;;18.70;53.90;20.80;93372.00;;;;10454899;28;45189;-64
2022/08/17 00:20:31;;;;;;;2.55;1.52;;;18.70;53.90;20.80;93377.00;;;;10459871;28;46257;-64
2022/08/17 00:25:53;;;;;;;2.08;1.45;;;18.70;53.90;20.80;93388.00;;;;10459917;28;45250;-64
2022/08/17 00:31:14;;;;;;;3.30;1.58;;;18.70;54.00;20.90;93400.00;;;;10427718;28;45934;-63
2022/08/17 00:36:35;;;;;;;2.03;1.63;;;18.70;53.90;20.90;93412.00;;;;10454379;28;45265;-64
2022/08/17 00:41:57;;;;;;;2.25;1.48;;;18.80;53.80;20.80;93411.00;;;;10426356;28;45225;-63
2022/08/17 00:47:17;;;;;;;2.30;1.70;;;18.80;53.90;20.90;93400.00;;;;10452130;28;45934;-64
2022/08/17 00:52:50;;;;;;;2.30;1.60;;;18.80;53.90;20.80;93418.00;;;;10452746;28;45869;-64
2022/08/17 00:58:12;;;;;;;2.25;1.52;;;18.80;53.90;20.80;93422.00;;;;10459681;28;45192;-64
2022/08/17 01:03:35;;;;;;;2.75;1.60;;;18.80;54.10;20.90;93411.00;;;;10459894;28;45219;-64
2022/08/17 01:08:58;;;;;;;2.65;1.60;;;18.80;54.00;20.90;93426.00;;;;10469826;28;45741;-64
2022/08/17 01:14:21;;;;;;;2.13;1.60;;;18.80;53.90;20.90;93417.00;;;;10475544;28;45183;-64
2022/08/17 01:19:44;;;;;;;2.28;1.65;;;18.80;53.90;20.90;93393.00;;;;10475603;28;45163;-64
2022/08/17 01:25:09;;;;;;;4.25;1.63;;;18.80;53.90;20.80;93374.00;;;;10474541;28;45280;-64
2022/08/17 01:30:30;;;;;;;2.35;1.70;;;18.80;54.10;20.80;93380.00;;;;10474493;28;45929;-64
2022/08/17 01:35:51;;;;;;;2.67;1.65;;;18.80;54.20;20.80;93395.00;;;;10447839;28;45097;-63
2022/08/17 01:41:16;;;;;;;2.75;1.60;;;18.80;54.90;20.90;93407.00;;;;10460297;28;45337;-64
2022/08/17 01:46:37;;;;;;;2.63;1.63;;;18.80;54.20;20.90;93408.00;;;;10442033;28;45237;-64
2022/08/17 01:52:05;;;;;;;1.80;1.60;;;18.80;54.20;20.80;93399.00;;;;10468399;28;45298;-63
2022/08/17 01:57:26;;;;;;;2.35;1.80;;;18.80;54.30;20.80;93402.00;;;;10460925;28;45191;-64
2022/08/17 02:02:47;;;;;;;2.20;1.70;;;18.80;54.40;20.80;93381.00;;;;10464689;28;45252;-64
2022/08/17 02:08:08;;;;;;;2.92;1.73;;;18.80;54.50;20.80;93409.00;;;;10473926;28;45149;-64
2022/08/17 02:13:32;;;;;;;2.50;1.85;;;18.80;54.60;20.90;93427.00;;;;10472321;28;45770;-64
2022/08/17 02:18:52;;;;;;;3.05;1.55;;;18.80;54.50;20.90;93436.00;;;;10472949;28;45712;-64
2022/08/17 02:24:19;;;;;;;2.47;1.55;;;18.80;54.70;20.90;93408.00;;;;10473564;28;45765;-64
2022/08/17 02:29:41;;;;;;;;;;;18.80;54.70;20.80;93413.00;;;;10473813;28;45688;-64
2022/08/17 02:35:02;;;;;;;2.13;1.50;;;18.80;54.90;20.90;93424.00;;;;10473362;28;45257;-64
2022/08/17 02:40:23;;;;;;;2.03;1.50;;;18.80;54.70;20.90;93447.00;;;;10436246;28;45726;-64
2022/08/17 02:45:44;;;;;;;2.05;1.70;;;18.80;54.70;20.90;93447.00;;;;10430215;28;45250;-64
2022/08/17 02:51:05;;;;;;;1.88;1.58;;;18.80;54.60;21.00;93441.00;;;;10433609;28;45171;-64
2022/08/17 02:56:26;;;;;;;3.00;1.77;;;18.90;54.60;20.90;93447.00;;;;10471570;28;45322;-64
2022/08/17 03:01:48;;;;;;;3.30;1.88;;;18.80;54.60;20.90;93444.00;;;;10471097;28;45411;-64
2022/08/17 03:07:10;;;;;;;2.95;1.70;;;18.80;54.70;20.90;93443.00;;;;10456823;28;45789;-64
2022/08/17 03:12:34;;;;;;;2.38;1.80;;;18.90;55.00;20.90;93441.00;;;;10448122;28;45754;-64
2022/08/17 03:17:58;;;;;;;3.53;1.95;;;18.90;55.10;20.90;93399.00;;;;10434026;28;45430;-64
2022/08/17 03:23:19;;;;;;;2.10;1.50;;;18.80;55.50;20.90;93437.00;;;;10429390;28;45249;-64
2022/08/17 03:28:40;;;;;;;2.55;1.90;;;18.80;55.40;20.90;93418.00;;;;10460652;28;45310;-64
2022/08/17 03:34:01;;;;;;;3.25;1.80;;;18.80;55.50;20.90;93434.00;;;;10473451;28;45375;-64
2022/08/17 03:39:22;;;;;;;2.03;1.50;;;18.80;55.50;20.90;93433.00;;;;10459815;28;45443;-64
2022/08/17 03:44:42;;;;;;;2.75;1.70;;;18.90;55.50;20.90;93429.00;;;;10459233;28;45835;-64
2022/08/17 04:01:31;;;;;;;2.60;1.80;;;18.80;56.20;20.90;93397.00;;;;10466520;28;45369;-64
2022/08/17 04:06:52;;;;;;;3.22;1.70;;;18.80;56.50;20.90;93416.00;;;;10444877;28;45154;-64
2022/08/17 04:12:15;;;;;;;2.85;1.77;;;18.80;56.70;20.90;93441.00;;;;10457413;28;45440;-64
2022/08/17 04:17:36;;;;;;;2.63;1.67;;;18.80;56.70;20.90;93449.00;;;;10464754;28;45868;-64
2022/08/17 04:23:02;;;;;;;2.47;1.90;;;18.80;57.30;20.90;93443.00;;;;10457962;28;45182;-64
2022/08/17 04:28:23;;;;;;;2.78;1.70;;;18.80;56.40;20.90;93446.00;;;;10446640;28;45116;-64
2022/08/17 04:33:44;;;;;;;3.45;1.60;;;18.80;56.50;20.90;93444.00;;;;10436915;28;45164;-64
2022/08/17 04:39:06;;;;;;;2.08;1.25;;;18.80;56.20;20.70;93451.00;;;;10459686;28;45379;-64
2022/08/17 04:44:26;;;;;;;1.73;1.40;;;18.80;56.10;20.90;93453.00;;;;10444487;28;45719;-64
2022/08/17 04:49:47;;;;;;;1.55;1.10;;;18.80;55.90;20.90;93473.00;;;;10463790;28;45226;-64
2022/08/17 04:55:10;;;;;;;2.10;1.35;;;18.80;55.80;20.80;93476.00;;;;10461327;28;45186;-64
2022/08/17 05:00:31;;;;;;;1.70;1.20;;;18.80;55.90;20.90;93496.00;;;;10468848;28;45145;-64
2022/08/17 05:05:52;;;;;;;1.95;1.48;;;18.80;56.00;20.80;93498.00;;;;10464300;28;45218;-64
2022/08/17 05:11:14;;;;;;;2.35;1.45;;;18.80;56.00;20.80;93485.00;;;;10454824;28;45828;-64
2022/08/17 05:16:35;;;;;;;2.90;1.33;;;18.80;55.90;20.80;93476.00;;;;10454263;28;45735;-64
2022/08/17 05:21:55;;;;;;;3.33;1.30;;;18.80;55.90;20.80;93476.00;;;;10461734;28;45288;-64
2022/08/17 05:27:17;;;;;;;1.48;1.30;;;18.80;55.90;20.90;93459.00;;;;10470707;28;45254;-65
2022/08/17 05:32:38;;;;;;;1.73;1.02;;;18.80;55.90;20.90;93494.00;;;;10461587;28;45231;-64
2022/08/17 05:37:59;;;;;;;1.75;1.13;;;18.80;55.90;20.80;93489.00;;;;10464938;28;45307;-64
2022/08/17 05:43:24;;;;;;;1.92;1.30;;;18.80;56.00;20.80;93490.00;;;;10477190;28;45299;-63
2022/08/17 05:48:47;;;;;;;2.10;1.40;;;18.80;55.90;20.80;93492.00;;;;10453346;28;45215;-64
2022/08/17 05:54:28;;;;;;;1.92;1.10;;;18.80;56.00;20.80;93500.00;;;;10437552;28;45873;-65
2022/08/17 06:00:07;;;;;;;1.60;1.13;;;18.80;56.10;20.80;93472.00;;;;10463066;28;45747;-64
2022/08/17 06:05:47;;;;;;;1.35;1.08;;;18.80;56.20;20.80;93478.00;;;;10475322;28;45254;-64
2022/08/17 06:11:19;;;;;;;2.63;1.10;;;18.80;56.30;20.80;93498.00;;;;10469857;28;45782;-64
2022/08/17 06:16:45;;;;;;;1.67;1.20;;;18.80;56.30;20.80;93476.00;;;;10464864;28;45248;-64
2022/08/17 06:22:08;;;;;;;1.45;1.35;;;18.80;56.40;20.80;93459.00;;;;10453741;28;45794;-64
2022/08/17 06:27:37;;;;;;;2.47;1.17;;;18.80;56.40;20.80;93468.00;;;;10453842;28;45170;-64
2022/08/17 06:33:06;;;;;;;2.38;1.20;;;18.80;56.50;20.80;93466.00;;;;10452103;28;45241;-64
2022/08/17 06:38:40;;;;;;;3.85;2.55;;;18.80;56.70;20.80;93483.00;;;;10449744;28;45137;-64
2022/08/17 06:44:13;;;;;;;6.10;3.20;;;18.70;56.80;20.80;93476.00;;;;10456324;28;45283;-64
2022/08/17 06:49:45;;;;;;;5.03;2.92;;;18.80;57.10;20.80;93474.00;;;;10464581;28;45139;-64
2022/08/17 06:55:11;;;;;;;5.70;2.90;;;18.80;57.40;20.80;93474.00;;;;10457789;28;45307;-64
2022/08/17 07:00:40;;;;;;;4.88;2.85;;;18.70;57.60;20.80;93479.00;;;;10438641;28;45092;-64
2022/08/17 07:06:08;;;;;;;4.72;2.42;;;18.70;57.50;20.80;93500.00;;;;10458645;28;45225;-63
2022/08/17 07:11:38;;;;;;;4.75;2.40;;;18.70;57.70;20.80;93486.00;;;;10446568;28;45886;-64
2022/08/17 07:17:04;;;;;;;6.65;2.60;;;18.70;57.90;20.80;93470.00;;;;10461530;28;45621;-64
2022/08/17 07:22:36;;;;;;;3.83;2.15;;;18.80;58.10;20.80;93477.00;;;;10474554;28;45211;-65
2022/08/17 07:28:01;;;;;;;3.88;2.20;;;18.80;58.10;20.80;93479.00;;;;10434086;28;45191;-65
2022/08/17 07:33:26;;;;;;;2.95;2.00;;;18.80;58.20;20.80;93479.00;;;;10459181;28;45163;-65
2022/08/17 07:38:57;;;;;;;3.20;2.05;;;18.80;58.10;20.90;93473.00;;;;10466773;28;45214;-65
2022/08/17 07:44:17;;;;;;;2.72;1.92;;;18.80;58.00;20.90;93465.00;;;;10446695;28;45799;-65
2022/08/17 07:49:41;;;;;;;4.25;2.05;;;18.80;57.90;20.90;93471.00;;;;10445332;28;45155;-65
2022/08/17 07:55:29;;;;;;;2.40;1.70;;;18.80;57.90;20.90;93469.00;;;;10470830;28;45315;-65
2022/08/17 08:01:04;;;;;;;;;;;18.80;57.80;20.90;93490.00;;;;10445036;28;45317;-65
2022/08/17 08:06:26;;;;;;;3.22;1.90;;;18.80;57.60;20.90;93488.00;;;;10445003;28;45190;-63
2022/08/17 08:11:48;;;;;;;3.13;2.00;;;18.80;57.70;20.90;93486.00;;;;10443665;28;45806;-64
2022/08/17 08:17:09;;;;;;;2.85;1.80;;;18.80;57.60;20.90;93495.00;;;;10461955;28;45751;-64
2022/08/17 08:22:43;;;;;;;2.63;1.98;;;18.80;58.30;20.90;93504.00;;;;10465998;28;45655;-65
2022/08/17 08:28:20;;;;;;;2.33;1.70;;;18.80;57.70;20.90;93500.00;;;;10465491;28;45191;-64
2022/08/17 08:33:55;;;;;;;2.92;1.77;;;18.80;57.70;20.90;93513.00;;;;10456789;28;45238;-65
2022/08/17 08:39:22;;;;;;;2.55;1.73;;;18.80;57.70;20.90;93530.00;;;;10467819;28;45132;-65
2022/08/17 08:44:55;;;;;;;2.45;1.77;;;18.90;57.70;21.00;93531.00;;;;10462174;28;45692;-64
2022/08/17 08:50:27;;;;;;;4.45;1.73;;;18.90;57.30;21.00;93548.00;;;;10463078;28;45546;-67
2022/08/17 08:55:55;;;;;;;4.75;1.90;;;18.90;57.40;20.90;93565.00;;;;10478985;28;45465;-65
2022/08/17 09:01:25;;;;;;;4.32;2.28;;;18.80;57.40;21.00;93556.00;;;;10454635;28;45716;-65
2022/08/17 09:06:56;;;;;;;3.55;2.10;;;18.90;57.20;21.00;93584.00;;;;10449456;28;45559;-65
2022/08/17 09:12:26;;;;;;;3.70;1.90;;;18.90;57.40;21.00;93607.00;;;;10451842;28;45233;-63
2022/08/17 09:18:01;;;;;;;3.20;1.73;;;18.90;57.30;21.00;93597.00;;;;10469832;28;45219;-63
2022/08/17 09:23:32;;;;;;;2.95;1.83;;;18.90;57.10;21.00;93613.00;;;;10463545;28;45520;-64
2022/08/17 09:29:00;;;;;;;3.08;1.77;;;18.90;57.10;21.00;93617.00;;;;10468714;28;45550;-63
2022/08/17 09:34:30;;;;;;;3.70;1.77;;;18.90;57.00;21.10;93634.00;;;;10453948;28;45783;-65
2022/08/17 09:40:02;;;;;;;2.17;1.65;;;18.90;56.90;21.10;93629.00;;;;10463781;28;45503;-64
2022/08/17 09:45:31;;;;;;;3.75;1.67;;;19.00;56.90;21.10;93620.00;;;;10457039;28;45479;-64
2022/08/17 09:51:05;;;;;;;2.63;1.52;;;19.00;56.80;21.20;93597.00;;;;10453101;28;45522;-64
2022/08/17 09:56:39;;;;;;;2.92;1.60;;;19.10;56.90;21.20;93597.00;;;;10459831;28;45164;-63
2022/08/17 10:02:24;;;;;;;2.65;1.90;;;19.10;57.20;21.20;93578.00;;;;10464843;28;45819;-63
2022/08/17 10:07:57;;;;;;;3.80;2.00;;;19.10;57.40;21.20;93587.00;;;;10473852;28;45138;-60
2022/08/17 10:13:32;;;;;;;4.00;2.17;;;19.10;58.10;21.30;93581.00;;;;10467760;28;45878;-63
2022/08/17 10:19:12;;;;;;;5.35;2.50;;;19.10;58.20;21.30;93566.00;;;;10476547;28;45139;-63
2022/08/17 10:30:21;;;;;;;2.83;1.90;;;19.20;57.80;21.40;93576.00;;;;10476589;28;45285;-63
2022/08/17 10:35:48;;;;;;;3.33;2.10;;;19.20;58.00;21.40;93583.00;;;;10468543;28;45424;-62
2022/08/17 10:41:24;;;;;;;;;;;19.30;58.10;21.40;93574.00;;;;10477647;28;45254;-63
2022/08/17 10:47:06;;;;;;;3.30;1.75;;;19.30;58.00;21.40;93568.00;;;;10471168;28;45222;-61
2022/08/17 10:52:48;;;;;;;3.35;2.03;;;19.30;58.20;21.50;93582.00;;;;10466305;28;45218;-59
2022/08/17 10:58:23;;;;;;;3.05;1.85;;;19.40;57.60;21.50;93571.00;;;;10471967;28;45247;-59
2022/08/17 11:03:54;;;;;;;3.40;1.98;;;19.30;57.40;21.50;93579.00;;;;10471772;28;45718;-59
2022/08/17 11:09:35;;;;;;;2.40;1.63;;;19.40;57.40;21.50;93571.00;;;;10430242;28;46307;-61
2022/08/17 11:15:12;;;;;;;2.95;1.90;;;19.30;57.20;21.50;93558.00;;;;10442034;28;45163;-59
2022/08/17 11:20:52;;;;;;;;;;;19.30;57.30;21.50;93563.00;;;;10472216;28;45471;-60
2022/08/17 11:26:24;;;;;;;3.25;1.90;;;19.40;57.60;21.50;93561.00;;;;10471740;28;45178;-60
2022/08/17 11:32:02;;;;;;;3.63;1.83;;;19.40;57.80;21.50;93561.00;;;;10471308;28;45348;-60
2022/08/17 11:37:50;;;;;;;2.45;1.90;;;19.40;57.70;21.50;93563.00;;;;10469686;28;45257;-60
2022/08/17 11:43:47;;;;;;;3.63;1.83;;;19.40;58.10;21.50;93543.00;;;;10471176;28;46127;-60
2022/08/17 11:54:58;;;;;;;3.58;2.10;;;19.40;58.20;21.60;93547.00;;;;10470214;28;46199;-60
2022/08/17 12:00:57;;;;;;;2.90;2.03;;;19.40;58.20;21.60;93545.00;;;;10469809;28;45132;-59
2022/08/17 12:06:42;;;;;;;2.95;1.80;;;19.40;58.30;21.60;93545.00;;;;10463070;28;46676;-59
2022/08/17 12:12:11;;;;;;;3.38;2.00;;;19.40;58.70;21.60;93511.00;;;;10470608;28;45256;-59
2022/08/17 12:17:34;;;;;;;3.20;1.85;;;19.50;58.70;21.60;93515.00;;;;10469341;28;45183;-59
2022/08/17 12:23:06;;;;;;;2.30;1.75;;;19.50;58.70;21.60;93520.00;;;;10466297;28;45366;-59
2022/08/17 12:28:29;;;;;;;2.58;1.90;;;19.50;59.50;21.60;93512.00;;;;10469050;28;45183;-60
2022/08/17 12:33:51;;;;;;;2.30;1.50;;;19.50;58.80;21.70;93508.00;;;;10468836;28;45182;-59
2022/08/17 12:39:20;;;;;;;3.75;2.00;;;19.50;58.80;21.70;93504.00;;;;10468193;28;45490;-59
2022/08/17 12:44:44;;;;;;;4.13;1.67;;;19.60;58.50;21.80;93485.00;;;;10467357;28;45234;-60
2022/08/17 12:50:12;;;;;;;3.95;1.83;;;19.70;58.10;21.90;93488.00;;;;10462136;28;45900;-60
2022/08/17 12:55:37;;;;;;;5.32;2.20;;;19.80;57.50;21.90;93502.00;;;;10453653;28;45206;-60
2022/08/17 13:01:03;;;;;;;4.88;2.00;;;19.80;57.20;21.90;93505.00;;;;10467554;28;45930;-60
2022/08/17 13:06:30;;;;;;;3.92;1.85;;;19.70;57.60;21.90;93494.00;;;;10468577;28;45225;-59
2022/08/17 13:11:54;;;;;;;3.25;1.65;;;19.70;57.80;21.90;93478.00;;;;10476125;28;45339;-60
2022/08/17 13:17:27;;;;;;;3.30;1.88;;;19.80;58.10;21.90;93477.00;;;;10474054;28;45189;-60
2022/08/17 13:22:55;;;;;;;2.78;1.85;;;19.80;58.30;21.90;93479.00;;;;10462089;28;45882;-60
2022/08/17 13:28:22;;;;;;;4.40;1.73;;;19.80;58.00;21.90;93455.00;;;;10438169;28;45176;-60
2022/08/17 13:33:43;;;;;;;4.75;2.10;;;19.80;58.00;21.90;93450.00;;;;10466524;28;45890;-61
2022/08/17 13:39:12;;;;;;;3.03;1.92;;;19.80;58.10;21.90;93443.00;;;;10461701;28;45324;-60
2022/08/17 13:44:38;;;;;;;3.17;1.90;;;19.80;58.10;22.00;93438.00;;;;10461317;28;45227;-60
2022/08/17 13:49:58;;;;;;;2.67;1.80;;;19.80;58.10;22.00;93417.00;;;;10473021;28;45316;-60
2022/08/17 13:55:22;;;;;;;3.08;1.70;;;19.90;57.90;22.00;93414.00;;;;10472709;28;45243;-61
2022/08/17 14:00:44;;;;;;;4.65;1.92;;;19.90;57.90;22.00;93408.00;;;;10448454;28;45309;-60
2022/08/17 14:06:06;;;;;;;3.15;1.77;;;19.90;57.70;22.00;93391.00;;;;10453122;28;45754;-59
2022/08/17 14:11:27;;;;;;;3.47;2.13;;;19.90;57.50;22.00;93400.00;;;;10462440;28;45838;-59
2022/08/17 14:16:48;;;;;;;3.15;1.75;;;19.90;57.10;22.00;93400.00;;;;10431399;28;45214;-59
2022/08/17 14:22:16;;;;;;;3.75;2.15;;;19.90;57.10;22.00;93413.00;;;;10471314;28;45245;-61
2022/08/17 14:27:38;;;;;;;2.67;1.60;;;19.90;56.80;22.00;93416.00;;;;10452317;28;45358;-61
2022/08/17 14:33:00;;;;;;;4.60;2.10;;;19.90;57.00;22.00;93371.00;;;;10472338;28;45227;-61
2022/08/17 14:38:21;;;;;;;2.13;1.80;;;19.90;56.80;22.00;93393.00;;;;10473568;28;45258;-60
2022/08/17 14:43:42;;;;;;;3.53;1.73;;;19.90;56.80;22.00;93388.00;;;;10442722;28;45196;-61
2022/08/17 14:49:04;;;;;;;2.70;1.95;;;19.90;56.80;22.00;93390.00;;;;10430256;28;45380;-60
2022/08/17 14:54:25;;;;;;;2.97;1.73;;;19.90;56.80;21.90;93370.00;;;;10459036;28;45203;-60
2022/08/17 14:59:46;;;;;;;5.05;1.90;;;19.90;56.60;22.00;93333.00;;;;10450225;28;45407;-60
2022/08/17 15:05:09;;;;;;;3.75;1.50;;;19.90;56.70;22.00;93373.00;;;;10460038;28;45306;-59
2022/08/17 15:10:30;;;;;;;2.22;1.58;;;19.90;56.60;22.00;93442.00;;;;10466966;28;45537;-60
2022/08/17 15:15:52;;;;;;;2.92;1.45;;;19.90;56.70;22.00;93470.00;;;;10467324;28;45466;-59
2022/08/17 15:21:14;;;;;;;3.65;2.40;;;19.90;56.10;22.10;93462.00;;;;10466448;28;45255;-61
2022/08/17 15:26:35;;;;;;;4.30;2.50;;;19.90;56.20;22.00;93472.00;;;;10455079;28;45842;-61
2022/08/17 15:31:55;;;;;;;3.33;2.25;;;19.90;56.90;22.00;93490.00;;;;10467824;28;45213;-61
